sensor_id;sensor_type;location;lat;lon;timestamp;P1;durP1;ratioP1;P2;durP2;ratioP2
80679;SDS011;70043;51.982;-8.514;2023-07-30T00:01:55;1.15;;;0.30;;
80679;SDS011;70043;51.982;-8.514;2023-07-30T00:04:23;1.35;;;0.25;;
80679;SDS011;70043;51.982;-8.514;2023-07-30T00:06:51;2.78;;;0.32;;
80679;SDS011;70043;51.982;-8.514;2023-07-30T00:09:18;3.55;;;0.45;;
80679;SDS011;70043;51.982;-8.514;2023-07-30T00:11:46;5.82;;;0.52;;
80679;SDS011;70043;51.982;-8.514;2023-07-30T00:14:14;2.90;;;0.63;;
80679;SDS011;70043;51.982;-8.514;2023-07-30T00:16:43;0.73;;;0.20;;
80679;SDS011;70043;51.982;-8.514;2023-07-30T00:19:11;2.88;;;0.40;;
80679;SDS011;70043;51.982;-8.514;2023-07-30T00:21:39;6.95;;;0.55;;
80679;SDS011;70043;51.982;-8.514;2023-07-30T00:24:11;4.65;;;0.28;;
80679;SDS011;70043;51.982;-8.514;2023-07-30T00:26:39;0.80;;;0.10;;
80679;SDS011;70043;51.982;-8.514;2023-07-30T00:29:06;1.90;;;0.47;;
80679;SDS011;70043;51.982;-8.514;2023-07-30T00:31:34;2.17;;;0.50;;
80679;SDS011;70043;51.982;-8.514;2023-07-30T00:34:03;0.80;;;0.43;;
80679;SDS011;70043;51.982;-8.514;2023-07-30T00:36:31;0.28;;;0.10;;
80679;SDS011;70043;51.982;-8.514;2023-07-30T00:38:59;0.43;;;0.10;;
80679;SDS011;70043;51.982;-8.514;2023-07-30T00:41:27;2.25;;;0.25;;
80679;SDS011;70043;51.982;-8.514;2023-07-30T00:43:54;1.98;;;0.35;;
80679;SDS011;70043;51.982;-8.514;2023-07-30T00:46:22;3.60;;;0.38;;
80679;SDS011;70043;51.982;-8.514;2023-07-30T00:48:50;4.93;;;0.47;;
80679;SDS011;70043;51.982;-8.514;2023-07-30T00:51:19;1.40;;;0.38;;
80679;SDS011;70043;51.982;-8.514;2023-07-30T00:53:47;2.90;;;0.45;;
80679;SDS011;70043;51.982;-8.514;2023-07-30T00:56:15;1.52;;;0.30;;
80679;SDS011;70043;51.982;-8.514;2023-07-30T00:58:43;0.43;;;0.22;;
80679;SDS011;70043;51.982;-8.514;2023-07-30T01:01:11;1.05;;;0.35;;
80679;SDS011;70043;51.982;-8.514;2023-07-30T01:03:39;2.50;;;0.77;;
80679;SDS011;70043;51.982;-8.514;2023-07-30T01:06:07;3.72;;;0.28;;
80679;SDS011;70043;51.982;-8.514;2023-07-30T01:08:36;1.25;;;0.50;;
80679;SDS011;70043;51.982;-8.514;2023-07-30T01:11:04;2.92;;;0.50;;
80679;SDS011;70043;51.982;-8.514;2023-07-30T01:13:32;1.95;;;0.57;;
80679;SDS011;70043;51.982;-8.514;2023-07-30T01:16:01;1.13;;;0.38;;
80679;SDS011;70043;51.982;-8.514;2023-07-30T01:18:29;3.63;;;0.80;;
80679;SDS011;70043;51.982;-8.514;2023-07-30T01:20:59;1.63;;;0.73;;
80679;SDS011;70043;51.982;-8.514;2023-07-30T01:23:27;3.00;;;0.55;;
80679;SDS011;70043;51.982;-8.514;2023-07-30T01:25:56;3.45;;;0.30;;
80679;SDS011;70043;51.982;-8.514;2023-07-30T01:28:29;4.32;;;0.47;;
80679;SDS011;70043;51.982;-8.514;2023-07-30T01:31:02;6.00;;;0.45;;
80679;SDS011;70043;51.982;-8.514;2023-07-30T01:33:30;2.95;;;0.95;;
80679;SDS011;70043;51.982;-8.514;2023-07-30T01:36:00;4.68;;;0.70;;
80679;SDS011;70043;51.982;-8.514;2023-07-30T01:38:29;2.10;;;0.88;;
80679;SDS011;70043;51.982;-8.514;2023-07-30T01:40:57;2.63;;;0.50;;
80679;SDS011;70043;51.982;-8.514;2023-07-30T01:43:24;1.15;;;0.57;;
80679;SDS011;70043;51.982;-8.514;2023-07-30T01:45:52;1.75;;;0.65;;
80679;SDS011;70043;51.982;-8.514;2023-07-30T01:48:20;2.72;;;0.47;;
80679;SDS011;70043;51.982;-8.514;2023-07-30T01:50:48;2.13;;;0.55;;
80679;SDS011;70043;51.982;-8.514;2023-07-30T01:53:17;2.88;;;0.43;;
80679;SDS011;70043;51.982;-8.514;2023-07-30T01:55:45;1.70;;;0.88;;
80679;SDS011;70043;51.982;-8.514;2023-07-30T01:58:12;1.63;;;0.60;;
80679;SDS011;70043;51.982;-8.514;2023-07-30T02:00:40;5.78;;;0.75;;
80679;SDS011;70043;51.982;-8.514;2023-07-30T02:03:08;1.40;;;0.57;;
80679;SDS011;70043;51.982;-8.514;2023-07-30T02:05:36;5.80;;;0.63;;
80679;SDS011;70043;51.982;-8.514;2023-07-30T02:08:04;5.43;;;0.90;;
80679;SDS011;70043;51.982;-8.514;2023-07-30T02:10:33;4.20;;;0.90;;
80679;SDS011;70043;51.982;-8.514;2023-07-30T02:13:01;2.53;;;0.60;;
80679;SDS011;70043;51.982;-8.514;2023-07-30T02:15:28;2.83;;;0.43;;
80679;SDS011;70043;51.982;-8.514;2023-07-30T02:17:56;3.88;;;0.57;;
80679;SDS011;70043;51.982;-8.514;2023-07-30T02:20:24;5.97;;;0.82;;
80679;SDS011;70043;51.982;-8.514;2023-07-30T02:22:52;4.78;;;0.55;;
80679;SDS011;70043;51.982;-8.514;2023-07-30T02:25:20;3.70;;;0.95;;
80679;SDS011;70043;51.982;-8.514;2023-07-30T02:27:49;4.40;;;1.02;;
80679;SDS011;70043;51.982;-8.514;2023-07-30T02:30:17;4.18;;;0.90;;
80679;SDS011;70043;51.982;-8.514;2023-07-30T02:32:45;7.75;;;0.95;;
80679;SDS011;70043;51.982;-8.514;2023-07-30T02:35:13;3.33;;;0.70;;
80679;SDS011;70043;51.982;-8.514;2023-07-30T02:37:40;3.13;;;0.95;;
80679;SDS011;70043;51.982;-8.514;2023-07-30T02:40:09;2.53;;;0.85;;
80679;SDS011;70043;51.982;-8.514;2023-07-30T02:42:37;6.53;;;1.05;;
80679;SDS011;70043;51.982;-8.514;2023-07-30T02:45:07;4.65;;;0.68;;
80679;SDS011;70043;51.982;-8.514;2023-07-30T02:47:35;4.78;;;0.70;;
80679;SDS011;70043;51.982;-8.514;2023-07-30T02:50:03;10.13;;;0.95;;
80679;SDS011;70043;51.982;-8.514;2023-07-30T02:52:31;3.80;;;0.80;;
80679;SDS011;70043;51.982;-8.514;2023-07-30T02:54:59;3.30;;;0.82;;
80679;SDS011;70043;51.982;-8.514;2023-07-30T02:57:27;4.63;;;1.10;;
80679;SDS011;70043;51.982;-8.514;2023-07-30T02:59:54;3.17;;;0.60;;
80679;SDS011;70043;51.982;-8.514;2023-07-30T03:02:24;3.97;;;0.55;;
80679;SDS011;70043;51.982;-8.514;2023-07-30T03:04:51;7.03;;;1.20;;
80679;SDS011;70043;51.982;-8.514;2023-07-30T03:07:19;3.63;;;1.13;;
80679;SDS011;70043;51.982;-8.514;2023-07-30T03:09:47;3.80;;;1.00;;
80679;SDS011;70043;51.982;-8.514;2023-07-30T03:12:15;2.85;;;0.70;;
80679;SDS011;70043;51.982;-8.514;2023-07-30T03:14:43;1.77;;;0.47;;
80679;SDS011;70043;51.982;-8.514;2023-07-30T03:17:11;4.43;;;1.40;;
80679;SDS011;70043;51.982;-8.514;2023-07-30T03:19:40;3.40;;;0.98;;
80679;SDS011;70043;51.982;-8.514;2023-07-30T03:22:08;2.20;;;0.60;;
80679;SDS011;70043;51.982;-8.514;2023-07-30T03:24:35;3.22;;;1.00;;
80679;SDS011;70043;51.982;-8.514;2023-07-30T03:27:03;4.97;;;1.40;;
80679;SDS011;70043;51.982;-8.514;2023-07-30T03:29:32;4.90;;;1.48;;
80679;SDS011;70043;51.982;-8.514;2023-07-30T03:32:00;4.47;;;0.85;;
80679;SDS011;70043;51.982;-8.514;2023-07-30T03:34:27;1.98;;;0.60;;
80679;SDS011;70043;51.982;-8.514;2023-07-30T03:36:57;6.90;;;1.15;;
80679;SDS011;70043;51.982;-8.514;2023-07-30T03:39:25;7.68;;;1.20;;
80679;SDS011;70043;51.982;-8.514;2023-07-30T03:41:53;1.30;;;1.10;;
80679;SDS011;70043;51.982;-8.514;2023-07-30T03:44:21;2.67;;;0.70;;
80679;SDS011;70043;51.982;-8.514;2023-07-30T03:46:48;3.83;;;0.85;;
80679;SDS011;70043;51.982;-8.514;2023-07-30T03:49:16;4.75;;;1.00;;
80679;SDS011;70043;51.982;-8.514;2023-07-30T03:51:44;6.40;;;1.08;;
80679;SDS011;70043;51.982;-8.514;2023-07-30T03:54:13;0.95;;;0.57;;
80679;SDS011;70043;51.982;-8.514;2023-07-30T03:56:55;3.70;;;0.80;;
80679;SDS011;70043;51.982;-8.514;2023-07-30T03:59:22;4.97;;;0.80;;
80679;SDS011;70043;51.982;-8.514;2023-07-30T04:01:50;3.75;;;0.90;;
80679;SDS011;70043;51.982;-8.514;2023-07-30T04:04:18;3.63;;;0.95;;
80679;SDS011;70043;51.982;-8.514;2023-07-30T04:06:46;5.85;;;1.10;;
80679;SDS011;70043;51.982;-8.514;2023-07-30T04:09:15;3.05;;;1.23;;
80679;SDS011;70043;51.982;-8.514;2023-07-30T04:11:43;6.72;;;1.80;;
80679;SDS011;70043;51.982;-8.514;2023-07-30T04:14:10;5.47;;;1.33;;
80679;SDS011;70043;51.982;-8.514;2023-07-30T04:16:38;3.08;;;1.17;;
80679;SDS011;70043;51.982;-8.514;2023-07-30T04:19:07;5.05;;;0.98;;
80679;SDS011;70043;51.982;-8.514;2023-07-30T04:21:35;11.70;;;1.95;;
80679;SDS011;70043;51.982;-8.514;2023-07-30T04:24:03;5.32;;;1.60;;
80679;SDS011;70043;51.982;-8.514;2023-07-30T04:26:32;2.97;;;1.17;;
80679;SDS011;70043;51.982;-8.514;2023-07-30T04:29:00;10.00;;;1.70;;
80679;SDS011;70043;51.982;-8.514;2023-07-30T04:31:28;3.92;;;1.23;;
80679;SDS011;70043;51.982;-8.514;2023-07-30T04:33:57;4.82;;;1.48;;
80679;SDS011;70043;51.982;-8.514;2023-07-30T04:36:25;6.72;;;1.45;;
80679;SDS011;70043;51.982;-8.514;2023-07-30T04:38:53;4.78;;;1.25;;
80679;SDS011;70043;51.982;-8.514;2023-07-30T04:41:21;8.73;;;1.52;;
80679;SDS011;70043;51.982;-8.514;2023-07-30T04:43:50;9.50;;;1.65;;
80679;SDS011;70043;51.982;-8.514;2023-07-30T04:46:18;4.43;;;2.10;;
80679;SDS011;70043;51.982;-8.514;2023-07-30T04:48:46;3.50;;;1.23;;
80679;SDS011;70043;51.982;-8.514;2023-07-30T04:51:13;2.70;;;1.33;;
80679;SDS011;70043;51.982;-8.514;2023-07-30T04:53:41;4.97;;;1.30;;
80679;SDS011;70043;51.982;-8.514;2023-07-30T04:56:09;9.55;;;1.65;;
80679;SDS011;70043;51.982;-8.514;2023-07-30T04:58:37;7.43;;;1.73;;
80679;SDS011;70043;51.982;-8.514;2023-07-30T05:01:06;6.72;;;1.65;;
80679;SDS011;70043;51.982;-8.514;2023-07-30T05:03:33;6.65;;;1.75;;
80679;SDS011;70043;51.982;-8.514;2023-07-30T05:06:01;5.57;;;1.65;;
80679;SDS011;70043;51.982;-8.514;2023-07-30T05:08:29;7.28;;;1.80;;
80679;SDS011;70043;51.982;-8.514;2023-07-30T05:10:57;8.00;;;2.63;;
80679;SDS011;70043;51.982;-8.514;2023-07-30T05:13:26;12.52;;;2.60;;
80679;SDS011;70043;51.982;-8.514;2023-07-30T05:15:53;11.43;;;2.38;;
80679;SDS011;70043;51.982;-8.514;2023-07-30T05:18:22;5.05;;;1.77;;
80679;SDS011;70043;51.982;-8.514;2023-07-30T05:20:50;7.88;;;2.40;;
80679;SDS011;70043;51.982;-8.514;2023-07-30T05:23:18;7.88;;;2.47;;
80679;SDS011;70043;51.982;-8.514;2023-07-30T05:25:46;8.32;;;2.28;;
80679;SDS011;70043;51.982;-8.514;2023-07-30T05:28:14;8.82;;;2.00;;
80679;SDS011;70043;51.982;-8.514;2023-07-30T05:30:41;9.00;;;2.22;;
80679;SDS011;70043;51.982;-8.514;2023-07-30T05:33:09;9.13;;;1.70;;
80679;SDS011;70043;51.982;-8.514;2023-07-30T05:35:38;7.93;;;3.28;;
80679;SDS011;70043;51.982;-8.514;2023-07-30T05:38:06;8.23;;;1.90;;
80679;SDS011;70043;51.982;-8.514;2023-07-30T05:40:35;5.70;;;1.92;;
80679;SDS011;70043;51.982;-8.514;2023-07-30T05:43:02;7.05;;;1.80;;
80679;SDS011;70043;51.982;-8.514;2023-07-30T05:45:30;9.98;;;2.08;;
80679;SDS011;70043;51.982;-8.514;2023-07-30T05:47:59;5.38;;;1.85;;
80679;SDS011;70043;51.982;-8.514;2023-07-30T05:50:27;10.10;;;2.38;;
80679;SDS011;70043;51.982;-8.514;2023-07-30T05:52:56;9.20;;;2.15;;
80679;SDS011;70043;51.982;-8.514;2023-07-30T05:55:24;11.63;;;2.70;;
80679;SDS011;70043;51.982;-8.514;2023-07-30T05:57:52;5.05;;;2.10;;
80679;SDS011;70043;51.982;-8.514;2023-07-30T06:00:20;4.95;;;2.33;;
80679;SDS011;70043;51.982;-8.514;2023-07-30T06:02:49;6.90;;;2.63;;
80679;SDS011;70043;51.982;-8.514;2023-07-30T06:05:17;5.43;;;2.30;;
80679;SDS011;70043;51.982;-8.514;2023-07-30T06:07:44;10.90;;;2.58;;
80679;SDS011;70043;51.982;-8.514;2023-07-30T06:10:14;9.68;;;2.35;;
80679;SDS011;70043;51.982;-8.514;2023-07-30T06:12:41;14.07;;;2.67;;
80679;SDS011;70043;51.982;-8.514;2023-07-30T06:15:09;9.38;;;2.83;;
80679;SDS011;70043;51.982;-8.514;2023-07-30T06:17:37;9.00;;;2.97;;
80679;SDS011;70043;51.982;-8.514;2023-07-30T06:20:05;8.25;;;2.67;;
80679;SDS011;70043;51.982;-8.514;2023-07-30T06:22:34;9.23;;;2.75;;
80679;SDS011;70043;51.982;-8.514;2023-07-30T06:25:02;7.43;;;2.70;;
80679;SDS011;70043;51.982;-8.514;2023-07-30T06:27:32;9.60;;;2.28;;
80679;SDS011;70043;51.982;-8.514;2023-07-30T06:30:00;8.93;;;2.05;;
80679;SDS011;70043;51.982;-8.514;2023-07-30T06:32:27;6.28;;;2.40;;
80679;SDS011;70043;51.982;-8.514;2023-07-30T06:34:55;7.07;;;2.67;;
80679;SDS011;70043;51.982;-8.514;2023-07-30T06:37:23;6.03;;;2.38;;
80679;SDS011;70043;51.982;-8.514;2023-07-30T06:39:51;6.30;;;1.60;;
80679;SDS011;70043;51.982;-8.514;2023-07-30T06:42:19;5.95;;;2.55;;
80679;SDS011;70043;51.982;-8.514;2023-07-30T06:44:48;8.65;;;2.33;;
80679;SDS011;70043;51.982;-8.514;2023-07-30T06:47:15;8.15;;;2.40;;
80679;SDS011;70043;51.982;-8.514;2023-07-30T06:49:43;9.75;;;3.05;;
80679;SDS011;70043;51.982;-8.514;2023-07-30T06:52:11;7.60;;;2.53;;
80679;SDS011;70043;51.982;-8.514;2023-07-30T06:54:39;9.05;;;2.45;;
80679;SDS011;70043;51.982;-8.514;2023-07-30T06:57:06;10.90;;;2.65;;
80679;SDS011;70043;51.982;-8.514;2023-07-30T06:59:34;9.10;;;2.65;;
80679;SDS011;70043;51.982;-8.514;2023-07-30T07:02:03;8.93;;;2.50;;
80679;SDS011;70043;51.982;-8.514;2023-07-30T07:04:31;4.03;;;1.77;;
80679;SDS011;70043;51.982;-8.514;2023-07-30T07:06:59;14.57;;;2.20;;
80679;SDS011;70043;51.982;-8.514;2023-07-30T07:09:28;11.35;;;1.63;;
80679;SDS011;70043;51.982;-8.514;2023-07-30T07:11:56;22.02;;;2.33;;
80679;SDS011;70043;51.982;-8.514;2023-07-30T07:14:24;9.65;;;2.05;;
80679;SDS011;70043;51.982;-8.514;2023-07-30T07:16:52;7.78;;;1.92;;
80679;SDS011;70043;51.982;-8.514;2023-07-30T07:19:21;5.55;;;1.40;;
80679;SDS011;70043;51.982;-8.514;2023-07-30T07:21:49;12.75;;;1.75;;
80679;SDS011;70043;51.982;-8.514;2023-07-30T07:24:17;9.57;;;1.70;;
80679;SDS011;70043;51.982;-8.514;2023-07-30T07:26:45;9.35;;;1.92;;
80679;SDS011;70043;51.982;-8.514;2023-07-30T07:29:12;12.85;;;1.35;;
80679;SDS011;70043;51.982;-8.514;2023-07-30T07:31:40;6.05;;;1.15;;
80679;SDS011;70043;51.982;-8.514;2023-07-30T07:34:08;10.60;;;1.90;;
80679;SDS011;70043;51.982;-8.514;2023-07-30T07:36:37;6.03;;;1.60;;
80679;SDS011;70043;51.982;-8.514;2023-07-30T07:39:05;7.85;;;1.42;;
80679;SDS011;70043;51.982;-8.514;2023-07-30T07:41:33;10.00;;;1.35;;
80679;SDS011;70043;51.982;-8.514;2023-07-30T07:44:01;9.55;;;1.30;;
80679;SDS011;70043;51.982;-8.514;2023-07-30T07:46:28;7.28;;;1.67;;
80679;SDS011;70043;51.982;-8.514;2023-07-30T07:48:56;24.30;;;1.98;;
80679;SDS011;70043;51.982;-8.514;2023-07-30T07:51:24;7.47;;;0.88;;
80679;SDS011;70043;51.982;-8.514;2023-07-30T07:53:54;4.40;;;0.90;;
80679;SDS011;70043;51.982;-8.514;2023-07-30T07:56:22;4.82;;;1.10;;
80679;SDS011;70043;51.982;-8.514;2023-07-30T07:58:49;3.05;;;0.85;;
80679;SDS011;70043;51.982;-8.514;2023-07-30T08:01:17;2.75;;;0.85;;
80679;SDS011;70043;51.982;-8.514;2023-07-30T08:03:45;3.67;;;1.05;;
80679;SDS011;70043;51.982;-8.514;2023-07-30T08:06:13;5.32;;;0.85;;
80679;SDS011;70043;51.982;-8.514;2023-07-30T08:08:40;2.45;;;0.80;;
80679;SDS011;70043;51.982;-8.514;2023-07-30T08:11:10;1.52;;;0.75;;
80679;SDS011;70043;51.982;-8.514;2023-07-30T08:13:37;1.25;;;0.38;;
80679;SDS011;70043;51.982;-8.514;2023-07-30T08:16:05;1.58;;;0.75;;
80679;SDS011;70043;51.982;-8.514;2023-07-30T08:18:33;1.60;;;0.70;;
80679;SDS011;70043;51.982;-8.514;2023-07-30T08:21:01;1.10;;;0.68;;
80679;SDS011;70043;51.982;-8.514;2023-07-30T08:23:28;2.92;;;0.93;;
80679;SDS011;70043;51.982;-8.514;2023-07-30T08:25:56;0.88;;;0.60;;
80679;SDS011;70043;51.982;-8.514;2023-07-30T08:28:25;2.80;;;0.95;;
80679;SDS011;70043;51.982;-8.514;2023-07-30T08:30:57;3.88;;;0.82;;
80679;SDS011;70043;51.982;-8.514;2023-07-30T08:33:27;1.63;;;0.70;;
80679;SDS011;70043;51.982;-8.514;2023-07-30T08:35:55;1.90;;;0.60;;
80679;SDS011;70043;51.982;-8.514;2023-07-30T08:38:23;0.75;;;0.38;;
80679;SDS011;70043;51.982;-8.514;2023-07-30T08:40:51;1.33;;;0.35;;
80679;SDS011;70043;51.982;-8.514;2023-07-30T08:43:19;1.05;;;0.25;;
80679;SDS011;70043;51.982;-8.514;2023-07-30T08:45:48;0.47;;;0.10;;
80679;SDS011;70043;51.982;-8.514;2023-07-30T08:48:16;0.50;;;0.20;;
80679;SDS011;70043;51.982;-8.514;2023-07-30T08:50:44;0.50;;;0.20;;
80679;SDS011;70043;51.982;-8.514;2023-07-30T08:53:12;0.28;;;0.15;;
80679;SDS011;70043;51.982;-8.514;2023-07-30T08:55:41;0.30;;;0.22;;
80679;SDS011;70043;51.982;-8.514;2023-07-30T08:58:09;1.02;;;0.17;;
80679;SDS011;70043;51.982;-8.514;2023-07-30T09:00:38;1.38;;;0.20;;
80679;SDS011;70043;51.982;-8.514;2023-07-30T09:03:09;0.43;;;0.13;;
80679;SDS011;70043;51.982;-8.514;2023-07-30T09:05:38;0.95;;;0.32;;
80679;SDS011;70043;51.982;-8.514;2023-07-30T09:08:06;0.30;;;0.20;;
80679;SDS011;70043;51.982;-8.514;2023-07-30T09:10:34;0.40;;;0.22;;
80679;SDS011;70043;51.982;-8.514;2023-07-30T09:13:02;1.08;;;0.22;;
80679;SDS011;70043;51.982;-8.514;2023-07-30T09:15:30;1.05;;;0.52;;
80679;SDS011;70043;51.982;-8.514;2023-07-30T09:17:58;0.70;;;0.43;;
80679;SDS011;70043;51.982;-8.514;2023-07-30T09:20:28;1.80;;;0.50;;
80679;SDS011;70043;51.982;-8.514;2023-07-30T09:23:03;1.63;;;0.40;;
80679;SDS011;70043;51.982;-8.514;2023-07-30T09:25:31;2.38;;;0.82;;
80679;SDS011;70043;51.982;-8.514;2023-07-30T09:27:59;1.25;;;0.98;;
80679;SDS011;70043;51.982;-8.514;2023-07-30T09:30:27;3.83;;;0.80;;
80679;SDS011;70043;51.982;-8.514;2023-07-30T09:32:55;2.53;;;0.95;;
80679;SDS011;70043;51.982;-8.514;2023-07-30T09:35:24;3.83;;;0.93;;
80679;SDS011;70043;51.982;-8.514;2023-07-30T09:37:58;1.45;;;0.75;;
80679;SDS011;70043;51.982;-8.514;2023-07-30T09:40:30;0.28;;;0.10;;
80679;SDS011;70043;51.982;-8.514;2023-07-30T09:42:59;0.28;;;0.15;;
80679;SDS011;70043;51.982;-8.514;2023-07-30T09:45:27;0.15;;;0.08;;
80679;SDS011;70043;51.982;-8.514;2023-07-30T09:47:54;0.70;;;0.30;;
80679;SDS011;70043;51.982;-8.514;2023-07-30T09:50:22;1.05;;;0.57;;
80679;SDS011;70043;51.982;-8.514;2023-07-30T09:52:50;3.92;;;0.60;;
80679;SDS011;70043;51.982;-8.514;2023-07-30T09:55:20;0.43;;;0.22;;
80679;SDS011;70043;51.982;-8.514;2023-07-30T09:57:47;0.65;;;0.32;;
80679;SDS011;70043;51.982;-8.514;2023-07-30T10:00:15;1.30;;;0.20;;
80679;SDS011;70043;51.982;-8.514;2023-07-30T10:02:45;0.65;;;0.30;;
80679;SDS011;70043;51.982;-8.514;2023-07-30T10:05:14;0.28;;;0.10;;
80679;SDS011;70043;51.982;-8.514;2023-07-30T10:07:44;2.13;;;0.75;;
80679;SDS011;70043;51.982;-8.514;2023-07-30T10:10:16;0.73;;;0.35;;
80679;SDS011;70043;51.982;-8.514;2023-07-30T10:12:46;0.93;;;0.43;;
80679;SDS011;70043;51.982;-8.514;2023-07-30T10:15:17;2.05;;;0.98;;
80679;SDS011;70043;51.982;-8.514;2023-07-30T10:17:48;0.28;;;0.20;;
80679;SDS011;70043;51.982;-8.514;2023-07-30T10:20:17;2.45;;;0.50;;
80679;SDS011;70043;51.982;-8.514;2023-07-30T10:22:50;2.30;;;0.25;;
80679;SDS011;70043;51.982;-8.514;2023-07-30T10:25:21;4.05;;;0.70;;
80679;SDS011;70043;51.982;-8.514;2023-07-30T10:27:55;1.48;;;0.77;;
80679;SDS011;70043;51.982;-8.514;2023-07-30T10:30:27;28.58;;;1.48;;
80679;SDS011;70043;51.982;-8.514;2023-07-30T10:32:59;1.35;;;0.85;;
80679;SDS011;70043;51.982;-8.514;2023-07-30T10:35:40;1.42;;;0.60;;
80679;SDS011;70043;51.982;-8.514;2023-07-30T10:41:01;1.25;;;0.63;;
80679;SDS011;70043;51.982;-8.514;2023-07-30T10:46:08;0.35;;;0.13;;
80679;SDS011;70043;51.982;-8.514;2023-07-30T10:48:39;1.27;;;0.93;;
80679;SDS011;70043;51.982;-8.514;2023-07-30T10:51:08;0.73;;;0.30;;
80679;SDS011;70043;51.982;-8.514;2023-07-30T10:53:36;1.58;;;0.35;;
80679;SDS011;70043;51.982;-8.514;2023-07-30T10:56:06;3.28;;;0.90;;
80679;SDS011;70043;51.982;-8.514;2023-07-30T10:58:36;0.77;;;0.60;;
80679;SDS011;70043;51.982;-8.514;2023-07-30T11:04:20;4.00;;;1.38;;
80679;SDS011;70043;51.982;-8.514;2023-07-30T11:06:53;4.97;;;1.38;;
80679;SDS011;70043;51.982;-8.514;2023-07-30T11:09:24;3.95;;;1.75;;
80679;SDS011;70043;51.982;-8.514;2023-07-30T11:11:58;2.58;;;1.55;;
80679;SDS011;70043;51.982;-8.514;2023-07-30T11:14:27;5.85;;;2.13;;
80679;SDS011;70043;51.982;-8.514;2023-07-30T11:17:01;5.10;;;1.75;;
80679;SDS011;70043;51.982;-8.514;2023-07-30T11:19:49;1.35;;;0.80;;
80679;SDS011;70043;51.982;-8.514;2023-07-30T11:22:28;5.10;;;1.40;;
80679;SDS011;70043;51.982;-8.514;2023-07-30T11:24:57;1.15;;;0.70;;
80679;SDS011;70043;51.982;-8.514;2023-07-30T11:27:28;4.03;;;1.27;;
80679;SDS011;70043;51.982;-8.514;2023-07-30T11:29:56;8.07;;;2.72;;
80679;SDS011;70043;51.982;-8.514;2023-07-30T11:32:26;3.25;;;1.67;;
80679;SDS011;70043;51.982;-8.514;2023-07-30T11:34:56;6.80;;;2.22;;
80679;SDS011;70043;51.982;-8.514;2023-07-30T11:37:25;7.10;;;2.72;;
80679;SDS011;70043;51.982;-8.514;2023-07-30T11:39:53;5.65;;;2.22;;
80679;SDS011;70043;51.982;-8.514;2023-07-30T11:42:24;7.78;;;1.90;;
80679;SDS011;70043;51.982;-8.514;2023-07-30T11:44:56;7.20;;;2.33;;
80679;SDS011;70043;51.982;-8.514;2023-07-30T11:47:24;4.07;;;1.10;;
80679;SDS011;70043;51.982;-8.514;2023-07-30T11:50:02;7.10;;;1.98;;
80679;SDS011;70043;51.982;-8.514;2023-07-30T11:52:33;3.28;;;1.50;;
80679;SDS011;70043;51.982;-8.514;2023-07-30T11:55:01;7.90;;;2.03;;
80679;SDS011;70043;51.982;-8.514;2023-07-30T11:57:33;3.08;;;1.63;;
80679;SDS011;70043;51.982;-8.514;2023-07-30T12:00:05;2.22;;;1.38;;
80679;SDS011;70043;51.982;-8.514;2023-07-30T12:02:37;15.57;;;2.50;;
80679;SDS011;70043;51.982;-8.514;2023-07-30T12:05:10;4.82;;;1.83;;
80679;SDS011;70043;51.982;-8.514;2023-07-30T12:07:41;6.05;;;1.40;;
80679;SDS011;70043;51.982;-8.514;2023-07-30T12:10:09;1.83;;;0.63;;
80679;SDS011;70043;51.982;-8.514;2023-07-30T12:12:45;2.45;;;0.52;;
80679;SDS011;70043;51.982;-8.514;2023-07-30T12:15:19;1.75;;;0.90;;
80679;SDS011;70043;51.982;-8.514;2023-07-30T12:17:49;6.25;;;1.10;;
80679;SDS011;70043;51.982;-8.514;2023-07-30T12:26:18;1.73;;;0.98;;
80679;SDS011;70043;51.982;-8.514;2023-07-30T12:28:46;3.35;;;1.67;;
80679;SDS011;70043;51.982;-8.514;2023-07-30T12:31:16;4.10;;;1.80;;
80679;SDS011;70043;51.982;-8.514;2023-07-30T12:33:44;3.85;;;1.63;;
80679;SDS011;70043;51.982;-8.514;2023-07-30T12:36:14;11.75;;;2.63;;
80679;SDS011;70043;51.982;-8.514;2023-07-30T12:38:42;9.02;;;3.17;;
80679;SDS011;70043;51.982;-8.514;2023-07-30T12:41:10;7.55;;;2.13;;
80679;SDS011;70043;51.982;-8.514;2023-07-30T12:43:39;4.68;;;2.10;;
80679;SDS011;70043;51.982;-8.514;2023-07-30T12:46:07;8.35;;;2.25;;
80679;SDS011;70043;51.982;-8.514;2023-07-30T12:48:38;7.80;;;2.33;;
80679;SDS011;70043;51.982;-8.514;2023-07-30T12:51:07;9.10;;;2.45;;
80679;SDS011;70043;51.982;-8.514;2023-07-30T12:53:36;14.27;;;3.95;;
80679;SDS011;70043;51.982;-8.514;2023-07-30T12:56:05;7.50;;;2.85;;
80679;SDS011;70043;51.982;-8.514;2023-07-30T12:58:34;13.20;;;2.97;;
80679;SDS011;70043;51.982;-8.514;2023-07-30T13:01:02;9.40;;;2.80;;
80679;SDS011;70043;51.982;-8.514;2023-07-30T13:03:31;8.45;;;2.38;;
80679;SDS011;70043;51.982;-8.514;2023-07-30T13:06:00;11.10;;;3.28;;
80679;SDS011;70043;51.982;-8.514;2023-07-30T13:08:29;12.18;;;3.03;;
80679;SDS011;70043;51.982;-8.514;2023-07-30T13:10:58;11.15;;;2.83;;
80679;SDS011;70043;51.982;-8.514;2023-07-30T13:13:26;10.70;;;3.38;;
80679;SDS011;70043;51.982;-8.514;2023-07-30T13:15:55;7.70;;;3.00;;
80679;SDS011;70043;51.982;-8.514;2023-07-30T13:18:26;12.32;;;3.97;;
80679;SDS011;70043;51.982;-8.514;2023-07-30T13:20:57;8.38;;;2.38;;
80679;SDS011;70043;51.982;-8.514;2023-07-30T13:23:30;6.80;;;2.67;;
80679;SDS011;70043;51.982;-8.514;2023-07-30T13:26:01;5.82;;;2.60;;
80679;SDS011;70043;51.982;-8.514;2023-07-30T13:28:30;4.28;;;2.33;;
80679;SDS011;70043;51.982;-8.514;2023-07-30T13:30:58;6.63;;;2.35;;
80679;SDS011;70043;51.982;-8.514;2023-07-30T13:33:26;7.47;;;2.97;;
80679;SDS011;70043;51.982;-8.514;2023-07-30T13:35:55;7.40;;;3.28;;
80679;SDS011;70043;51.982;-8.514;2023-07-30T13:38:23;6.88;;;2.63;;
80679;SDS011;70043;51.982;-8.514;2023-07-30T13:40:53;5.47;;;1.98;;
80679;SDS011;70043;51.982;-8.514;2023-07-30T13:43:21;4.35;;;2.42;;
80679;SDS011;70043;51.982;-8.514;2023-07-30T13:45:50;5.53;;;2.50;;
80679;SDS011;70043;51.982;-8.514;2023-07-30T13:48:18;10.02;;;2.63;;
80679;SDS011;70043;51.982;-8.514;2023-07-30T13:50:49;8.85;;;2.58;;
80679;SDS011;70043;51.982;-8.514;2023-07-30T13:53:18;9.65;;;2.83;;
80679;SDS011;70043;51.982;-8.514;2023-07-30T13:55:50;4.35;;;2.10;;
80679;SDS011;70043;51.982;-8.514;2023-07-30T13:58:22;4.35;;;1.92;;
80679;SDS011;70043;51.982;-8.514;2023-07-30T14:00:53;6.38;;;1.95;;
80679;SDS011;70043;51.982;-8.514;2023-07-30T14:03:30;6.38;;;1.92;;
80679;SDS011;70043;51.982;-8.514;2023-07-30T14:06:01;6.95;;;2.20;;
80679;SDS011;70043;51.982;-8.514;2023-07-30T14:08:32;6.35;;;1.73;;
80679;SDS011;70043;51.982;-8.514;2023-07-30T14:11:02;4.07;;;1.38;;
80679;SDS011;70043;51.982;-8.514;2023-07-30T14:13:32;4.85;;;1.48;;
80679;SDS011;70043;51.982;-8.514;2023-07-30T14:16:00;1.80;;;0.98;;
80679;SDS011;70043;51.982;-8.514;2023-07-30T14:18:29;7.05;;;1.70;;
80679;SDS011;70043;51.982;-8.514;2023-07-30T14:21:00;5.82;;;2.10;;
80679;SDS011;70043;51.982;-8.514;2023-07-30T14:23:28;5.35;;;2.17;;
80679;SDS011;70043;51.982;-8.514;2023-07-30T14:25:57;3.80;;;1.55;;
80679;SDS011;70043;51.982;-8.514;2023-07-30T14:28:26;8.38;;;1.92;;
80679;SDS011;70043;51.982;-8.514;2023-07-30T14:30:56;5.13;;;1.98;;
80679;SDS011;70043;51.982;-8.514;2023-07-30T14:33:24;3.72;;;1.75;;
80679;SDS011;70043;51.982;-8.514;2023-07-30T14:35:53;5.40;;;1.73;;
80679;SDS011;70043;51.982;-8.514;2023-07-30T14:38:22;9.15;;;2.58;;
80679;SDS011;70043;51.982;-8.514;2023-07-30T14:40:49;5.10;;;1.95;;
80679;SDS011;70043;51.982;-8.514;2023-07-30T14:43:17;6.85;;;2.58;;
80679;SDS011;70043;51.982;-8.514;2023-07-30T14:45:47;3.97;;;1.85;;
80679;SDS011;70043;51.982;-8.514;2023-07-30T14:48:18;8.13;;;2.47;;
80679;SDS011;70043;51.982;-8.514;2023-07-30T14:50:46;5.60;;;2.25;;
80679;SDS011;70043;51.982;-8.514;2023-07-30T14:53:18;5.28;;;2.08;;
80679;SDS011;70043;51.982;-8.514;2023-07-30T14:55:47;4.45;;;1.40;;
80679;SDS011;70043;51.982;-8.514;2023-07-30T14:58:15;4.05;;;1.38;;